createdAt,value
2022-09-13T00:01:25.477Z,99813.81
2022-09-13T00:03:53.836Z,99812.09
2022-09-13T00:06:23.273Z,99796.63
2022-09-13T00:08:53.371Z,99810.44
2022-09-13T00:11:23.907Z,99781.22
2022-09-13T00:13:52.652Z,99803.59
2022-09-13T00:16:23.169Z,99807.94
2022-09-13T00:18:53.004Z,99736.56
2022-09-13T00:21:23.307Z,99783.00
2022-09-13T00:23:53.019Z,99802.84
2022-09-13T00:26:23.450Z,99794.22
2022-09-13T00:28:52.783Z,99749.50
2022-09-13T00:31:21.770Z,99763.25
2022-09-13T00:33:50.334Z,99787.41
2022-09-13T00:36:20.418Z,99786.53
2022-09-13T00:38:48.708Z,99766.72
2022-09-13T00:41:20.651Z,99753.81
2022-09-13T00:43:50.954Z,99782.25
2022-09-13T00:46:26.606Z,99776.25
2022-09-13T00:48:58.258Z,99765.94
2022-09-13T00:51:28.377Z,99786.63
2022-09-13T00:53:59.654Z,99754.78
2022-09-13T00:56:31.319Z,99793.56
2022-09-13T00:59:02.076Z,99784.09
2022-09-13T01:01:34.971Z,99764.31
2022-09-13T01:04:04.257Z,99786.72
2022-09-13T01:06:36.243Z,99778.09
2022-09-13T01:09:05.194Z,99777.28
2022-09-13T01:11:41.858Z,99775.56
2022-09-13T01:14:11.075Z,99773.84
2022-09-13T01:16:39.509Z,99776.47
2022-09-13T01:19:08.265Z,99779.09
2022-09-13T01:22:14.611Z,99775.63
2022-09-13T01:25:10.224Z,99779.09
2022-09-13T01:28:03.506Z,99764.47
2022-09-13T01:30:36.580Z,99780.00
2022-09-13T01:33:44.856Z,99751.56
2022-09-13T01:36:44.487Z,99780.00
2022-09-13T01:39:15.645Z,99776.56
2022-09-13T01:41:54.751Z,99763.66
2022-09-13T01:44:39.044Z,99787.78
2022-09-13T01:47:16.079Z,99786.06
2022-09-13T01:49:47.786Z,99779.19
2022-09-13T01:52:22.207Z,99773.16
2022-09-13T01:54:55.703Z,99771.41
2022-09-13T01:57:28.925Z,99775.75
2022-09-13T02:00:02.090Z,99771.44
2022-09-13T02:02:44.720Z,99772.31
2022-09-13T02:05:15.634Z,99770.56
2022-09-13T02:07:46.434Z,99761.97
2022-09-13T02:10:18.165Z,99767.13
2022-09-13T02:12:47.181Z,99767.13
2022-09-13T02:15:18.652Z,99767.97
2022-09-13T02:17:52.066Z,99765.41
2022-09-13T02:20:24.715Z,99764.50
2022-09-13T02:22:57.967Z,99771.41
2022-09-13T02:25:27.241Z,99764.50
2022-09-13T02:27:59.041Z,99745.63
2022-09-13T02:30:28.573Z,99765.38
2022-09-13T02:33:01.658Z,99760.22
2022-09-13T02:35:34.473Z,99748.16
2022-09-13T02:38:06.614Z,99760.22
2022-09-13T02:40:40.726Z,99754.19
2022-09-13T02:43:12.326Z,99722.34
2022-09-13T02:45:45.935Z,99752.47
2022-09-13T02:48:22.054Z,99730.97
2022-09-13T02:50:59.485Z,99753.34
2022-09-13T02:53:31.973Z,99755.94
2022-09-13T02:56:07.867Z,99731.84
2022-09-13T02:58:43.878Z,99749.03
2022-09-13T03:01:13.083Z,99753.38
2022-09-13T03:03:42.856Z,99750.78
2022-09-13T03:06:11.606Z,99745.59
2022-09-13T03:08:39.914Z,99750.78
2022-09-13T03:11:13.275Z,99746.47
2022-09-13T03:14:03.198Z,99738.72
2022-09-13T03:16:46.566Z,99734.44
2022-09-13T03:19:44.825Z,99734.44
2022-09-13T03:22:29.893Z,99737.00
2022-09-13T03:24:59.850Z,99732.69
2022-09-13T03:27:33.575Z,99726.63
2022-09-13T03:30:06.218Z,99724.94
2022-09-13T03:32:41.687Z,99697.41
2022-09-13T03:35:18.588Z,99729.19
2022-09-13T03:37:55.796Z,99727.44
2022-09-13T03:40:30.273Z,99716.25
2022-09-13T03:43:05.689Z,99740.34
2022-09-13T03:45:36.969Z,99730.84
2022-09-13T03:48:06.105Z,99735.13
2022-09-13T03:50:36.223Z,99706.72
2022-09-13T03:53:06.906Z,99705.88
2022-09-13T03:55:36.758Z,99729.94
2022-09-13T03:58:05.092Z,99726.47
2022-09-13T04:00:33.995Z,99717.84
2022-09-13T04:03:02.277Z,99724.72
2022-09-13T04:05:30.572Z,99715.22
2022-09-13T04:08:00.724Z,99715.22
2022-09-13T04:10:31.412Z,99710.94
2022-09-13T04:13:00.451Z,99706.63
2022-09-13T04:15:29.140Z,99710.91
2022-09-13T04:17:57.461Z,99706.50
2022-09-13T04:20:27.153Z,99684.16
2022-09-13T04:22:55.928Z,99713.38
2022-09-13T04:25:26.108Z,99695.31
2022-09-13T04:27:56.190Z,99695.28
2022-09-13T04:30:26.613Z,99711.56
2022-09-13T04:32:56.952Z,99727.00
2022-09-13T04:35:29.005Z,99681.31
2022-09-13T04:37:58.308Z,99708.81
2022-09-13T04:40:28.093Z,99710.59
2022-09-13T04:42:56.405Z,99735.53
2022-09-13T04:45:25.122Z,99720.78
2022-09-13T04:47:54.013Z,99723.25
2022-09-13T04:50:22.707Z,99699.09
2022-09-13T04:52:52.532Z,99730.13
2022-09-13T04:55:20.906Z,99720.56
2022-09-13T04:57:54.571Z,99714.38
2022-09-13T05:00:23.012Z,99723.81
2022-09-13T05:02:51.427Z,99695.19
2022-09-13T05:05:19.909Z,99725.25
2022-09-13T05:07:51.395Z,99732.09
2022-09-13T05:10:20.421Z,99724.19
2022-09-13T05:12:50.268Z,99724.03
2022-09-13T05:15:18.650Z,99733.53
2022-09-13T05:17:47.617Z,99723.50
2022-09-13T05:20:16.280Z,99730.22
2022-09-13T05:22:45.696Z,99706.81
2022-09-13T05:25:15.006Z,99711.03
2022-09-13T05:27:43.855Z,99697.47
2022-09-13T05:30:14.925Z,99723.59
2022-09-13T05:32:43.489Z,99739.25
2022-09-13T05:35:11.819Z,99739.22
2022-09-13T05:37:40.165Z,99741.06
2022-09-13T05:40:11.983Z,99730.63
2022-09-13T05:42:40.955Z,99747.28
2022-09-13T05:45:10.524Z,99737.75
2022-09-13T05:47:40.533Z,99742.09
2022-09-13T05:50:13.695Z,99686.00
2022-09-13T05:52:53.360Z,99737.75
2022-09-13T05:55:22.394Z,99730.59
2022-09-13T05:57:51.207Z,99730.44
2022-09-13T06:00:19.809Z,99736.38
2022-09-13T06:02:49.589Z,99725.97
2022-09-13T06:05:18.578Z,99730.09
2022-09-13T06:07:46.982Z,99730.03
2022-09-13T06:10:15.655Z,99732.78
2022-09-13T06:12:44.540Z,99730.31
2022-09-13T06:15:13.202Z,99714.16
2022-09-13T06:17:41.503Z,99732.25
2022-09-13T06:20:11.986Z,99720.19
2022-09-13T06:22:40.887Z,99736.47
2022-09-13T06:25:10.229Z,99738.19
2022-09-13T06:27:38.597Z,99732.97
2022-09-13T06:30:09.046Z,99733.66
2022-09-13T06:32:37.511Z,99733.50
2022-09-13T06:35:06.760Z,99733.25
2022-09-13T06:37:36.703Z,99710.25
2022-09-13T06:40:06.303Z,99725.72
2022-09-13T06:42:36.132Z,99732.56
2022-09-13T06:45:05.197Z,99732.50
2022-09-13T06:47:33.940Z,99726.31
2022-09-13T06:50:02.330Z,99731.34
2022-09-13T06:52:32.927Z,99735.69
2022-09-13T06:55:02.794Z,99722.66
2022-09-13T06:57:32.301Z,99726.75
2022-09-13T07:00:00.848Z,99720.63
2022-09-13T07:02:29.228Z,99727.75
2022-09-13T07:04:57.769Z,99727.59
2022-09-13T07:07:26.200Z,99718.06
2022-09-13T07:09:54.621Z,99701.63
2022-09-13T07:12:24.399Z,99718.69
2022-09-13T07:14:52.829Z,99707.56
2022-09-13T07:17:21.293Z,99709.44
2022-09-13T07:19:49.684Z,99697.13
2022-09-13T07:22:21.835Z,99695.78
2022-09-13T07:24:50.127Z,99705.19
2022-09-13T07:27:18.405Z,99701.56
2022-09-13T07:29:48.308Z,99700.84
2022-09-13T07:32:16.810Z,99697.50
2022-09-13T07:34:45.200Z,99694.34
2022-09-13T07:37:13.617Z,99689.00
2022-09-13T07:39:42.163Z,99686.34
2022-09-13T07:42:11.506Z,99687.53
2022-09-13T07:44:40.045Z,99688.78
2022-09-13T07:47:09.782Z,99680.03
2022-09-13T07:49:38.157Z,99660.19
2022-09-13T07:52:07.498Z,99678.06
2022-09-13T07:54:36.785Z,99675.41
2022-09-13T07:57:05.525Z,99678.09
2022-09-13T07:59:33.949Z,99670.22
2022-09-13T08:02:02.424Z,99609.00
2022-09-13T08:04:36.163Z,99652.03
2022-09-13T08:07:05.167Z,99659.22
2022-09-13T08:09:33.473Z,99664.50
2022-09-13T08:12:01.817Z,99634.63
2022-09-13T08:14:30.155Z,99667.28
2022-09-13T08:16:58.608Z,99636.41
2022-09-13T08:19:27.861Z,99662.00
2022-09-13T08:21:57.668Z,99653.16
2022-09-13T08:24:27.037Z,99655.50
2022-09-13T08:26:56.740Z,99641.50
2022-09-13T08:29:28.159Z,99639.50
2022-09-13T08:31:56.527Z,99643.69
2022-09-13T08:34:27.188Z,99645.19
2022-09-13T08:36:55.559Z,99638.81
2022-09-13T08:39:27.468Z,99638.47
2022-09-13T08:42:17.323Z,99636.38
2022-09-13T08:44:47.726Z,99624.00
2022-09-13T08:47:28.882Z,99622.91
2022-09-13T08:50:03.188Z,99632.88
2022-09-13T08:52:32.438Z,99631.34
2022-09-13T08:55:09.246Z,99626.28
2022-09-13T08:57:43.558Z,99590.78
2022-09-13T09:00:20.828Z,99623.47
2022-09-13T09:03:04.893Z,99606.81
2022-09-13T09:05:34.982Z,99617.69
2022-09-13T09:08:06.278Z,99597.94
2022-09-13T09:10:39.151Z,99581.78
2022-09-13T09:13:10.497Z,99604.50
2022-09-13T09:15:42.003Z,99587.00
2022-09-13T09:18:15.014Z,99592.72
2022-09-13T09:20:46.432Z,99559.75
2022-09-13T09:23:21.143Z,99585.50
2022-09-13T09:25:59.057Z,99556.19
2022-09-13T09:28:31.662Z,99565.34
2022-09-13T09:31:04.085Z,99563.22
2022-09-13T09:33:40.677Z,99555.19
2022-09-13T09:36:14.838Z,99546.66
2022-09-13T09:38:44.424Z,99560.03
2022-09-13T09:41:25.905Z,99556.84
2022-09-13T09:44:00.122Z,99540.19
2022-09-13T09:46:32.491Z,99555.66
2022-09-13T09:49:29.942Z,99557.03
2022-09-13T09:51:59.361Z,99553.72
2022-09-13T09:54:29.317Z,99517.16
2022-09-13T09:56:59.312Z,99557.38
2022-09-13T09:59:29.592Z,99556.41
2022-09-13T10:01:58.226Z,99544.94
2022-09-13T10:04:26.999Z,99554.69
2022-09-13T10:07:15.641Z,99540.84
2022-09-13T10:10:00.367Z,99536.44
2022-09-13T10:12:31.536Z,99554.81
2022-09-13T10:15:07.951Z,99552.91
2022-09-13T10:17:37.278Z,99505.00
2022-09-13T10:20:21.951Z,99533.59
2022-09-13T10:23:18.693Z,99520.91
2022-09-13T10:25:56.821Z,99484.56
2022-09-13T10:28:28.106Z,99533.13
2022-09-13T10:31:00.013Z,99520.47
2022-09-13T10:33:32.508Z,99529.44
2022-09-13T10:36:03.044Z,99477.56
2022-09-13T10:38:33.611Z,99535.13
2022-09-13T10:41:05.234Z,99526.63
2022-09-13T10:43:35.443Z,99523.97
2022-09-13T10:46:05.119Z,99526.09
2022-09-13T10:48:46.890Z,99511.75
2022-09-13T10:51:32.639Z,99512.03
2022-09-13T10:54:25.039Z,99521.25
2022-09-13T10:56:53.644Z,99522.28
2022-09-13T10:59:25.716Z,99531.88
2022-09-13T11:02:17.896Z,99521.63
2022-09-13T11:04:56.328Z,99528.13
2022-09-13T11:07:38.742Z,99513.63
2022-09-13T11:10:11.200Z,99522.44
2022-09-13T11:12:43.174Z,99523.03
2022-09-13T11:15:26.336Z,99500.44
2022-09-13T11:18:24.478Z,99515.06
2022-09-13T11:20:59.572Z,99479.25
2022-09-13T11:23:58.257Z,99492.22
2022-09-13T11:26:38.429Z,99490.97
2022-09-13T11:29:14.807Z,99491.94
2022-09-13T11:31:52.099Z,99480.69
2022-09-13T11:34:39.816Z,99495.25
2022-09-13T11:37:25.257Z,99479.63
2022-09-13T11:40:02.952Z,99470.59
2022-09-13T11:42:41.676Z,99486.75
2022-09-13T11:45:23.466Z,99462.69
2022-09-13T11:48:21.102Z,99471.41
2022-09-13T11:50:57.323Z,99477.69
2022-09-13T11:53:45.075Z,99475.03
2022-09-13T11:56:17.967Z,99469.13
2022-09-13T11:58:49.990Z,99475.19
2022-09-13T12:01:22.596Z,99472.53
2022-09-13T12:03:57.865Z,99473.53
2022-09-13T12:06:29.638Z,99463.19
2022-09-13T12:09:00.982Z,99468.44
2022-09-13T12:11:32.812Z,99468.38
2022-09-13T12:14:03.109Z,99469.34
2022-09-13T12:16:36.098Z,99459.84
2022-09-13T12:19:09.326Z,99471.28
2022-09-13T12:21:39.579Z,99460.59
2022-09-13T12:24:14.600Z,99461.47
2022-09-13T12:26:48.232Z,99464.09
2022-09-13T12:29:19.707Z,99461.31
2022-09-13T12:31:48.213Z,99454.50
2022-09-13T12:34:23.139Z,99449.38
2022-09-13T12:37:11.787Z,99457.03
2022-09-13T12:39:58.415Z,99454.41
2022-09-13T12:42:46.877Z,99444.81
2022-09-13T12:45:27.034Z,99438.13
2022-09-13T12:48:08.545Z,99442.41
2022-09-13T12:50:49.997Z,99429.28
2022-09-13T12:53:30.309Z,99431.91
2022-09-13T12:56:05.361Z,99427.88
2022-09-13T12:58:56.518Z,99410.53
2022-09-13T13:01:26.377Z,99413.94
2022-09-13T13:03:56.635Z,99409.53
2022-09-13T13:06:33.583Z,99413.00
2022-09-13T13:09:04.698Z,99372.03
2022-09-13T13:11:44.739Z,99422.47
2022-09-13T13:14:30.131Z,99394.91
2022-09-13T13:17:36.855Z,99408.34
2022-09-13T13:20:38.663Z,99418.56
2022-09-13T13:23:18.535Z,99415.00
2022-09-13T13:26:12.224Z,99422.53
2022-09-13T13:29:16.617Z,99406.22
2022-09-13T13:32:04.022Z,99376.72
2022-09-13T13:34:41.210Z,99371.94
2022-09-13T13:37:37.296Z,99389.72
2022-09-13T13:40:24.671Z,99391.56
2022-09-13T13:43:30.850Z,99373.91
2022-09-13T13:46:29.860Z,99372.25
2022-09-13T13:48:58.642Z,99375.81
2022-09-13T13:51:29.123Z,99346.88
2022-09-13T13:54:42.698Z,99364.63
2022-09-13T13:57:24.512Z,99367.88
2022-09-13T13:59:55.915Z,99367.03
2022-09-13T14:02:32.207Z,99363.00
2022-09-13T14:05:11.317Z,99349.38
2022-09-13T14:08:17.528Z,99327.97
2022-09-13T14:10:51.080Z,99303.13
2022-09-13T14:13:37.069Z,99296.41
2022-09-13T14:16:12.707Z,99289.53
2022-09-13T14:19:19.958Z,99354.97
2022-09-13T14:22:07.183Z,99314.06
2022-09-13T14:24:39.282Z,99366.16
2022-09-13T14:27:09.625Z,99336.91
2022-09-13T14:29:39.577Z,99346.38
2022-09-13T14:32:10.941Z,99350.50
2022-09-13T14:34:40.099Z,99365.00
2022-09-13T14:37:19.335Z,99370.22
2022-09-13T14:39:56.212Z,99364.88
2022-09-13T14:42:25.233Z,99347.41
2022-09-13T14:44:55.476Z,99358.34
2022-09-13T14:47:31.206Z,99311.66
2022-09-13T14:50:04.310Z,99371.88
2022-09-13T14:52:43.361Z,99322.97
2022-09-13T14:55:15.451Z,99317.06
2022-09-13T14:57:51.010Z,99358.84
2022-09-13T15:00:25.831Z,99358.97
2022-09-13T15:03:01.438Z,99354.66
2022-09-13T15:05:36.163Z,99355.72
2022-09-13T15:08:35.852Z,99356.50
2022-09-13T15:11:11.494Z,99348.75
2022-09-13T15:13:43.034Z,99343.66
2022-09-13T15:16:39.556Z,99354.97
2022-09-13T15:19:34.382Z,99348.09
2022-09-13T15:22:10.829Z,99354.28
2022-09-13T15:24:41.443Z,99324.41
2022-09-13T15:27:28.870Z,99347.47
2022-09-13T15:30:02.810Z,99351.84
2022-09-13T15:32:47.942Z,99354.63
2022-09-13T15:35:27.329Z,99322.84
2022-09-13T15:38:01.816Z,99234.28
2022-09-13T15:40:30.778Z,99350.44
2022-09-13T15:43:06.322Z,99340.91
2022-09-13T15:45:37.340Z,99283.78
2022-09-13T15:48:09.936Z,99283.88
2022-09-13T15:50:39.069Z,99259.97
2022-09-13T15:53:17.405Z,99288.22
2022-09-13T15:55:47.865Z,99340.19
2022-09-13T15:58:38.635Z,99287.19
2022-09-13T16:01:12.885Z,99214.72
2022-09-13T16:03:55.237Z,99317.81
2022-09-13T16:06:30.094Z,99242.09
2022-09-13T16:09:00.898Z,99323.00
2022-09-13T16:11:35.124Z,99326.56
2022-09-13T16:14:14.851Z,99241.22
2022-09-13T16:16:50.032Z,99276.28
2022-09-13T16:19:48.395Z,99266.00
2022-09-13T16:22:32.224Z,99206.50
2022-09-13T16:25:20.779Z,99208.22
2022-09-13T16:27:56.707Z,99222.28
2022-09-13T16:30:30.882Z,99194.81
2022-09-13T16:32:59.858Z,99266.97
2022-09-13T16:35:43.071Z,99335.44
2022-09-13T16:38:15.755Z,99289.28
2022-09-13T16:41:04.110Z,99266.19
2022-09-13T16:43:33.309Z,99269.91
2022-09-13T16:46:20.167Z,99259.00
2022-09-13T16:52:55.177Z,99319.69
2022-09-13T16:55:51.269Z,99319.69
2022-09-13T16:58:26.193Z,99280.47
2022-09-13T17:01:05.264Z,99263.63
2022-09-13T17:04:08.185Z,99197.78
2022-09-13T17:06:58.913Z,99186.81
2022-09-13T17:10:08.234Z,99271.34
2022-09-13T17:15:52.650Z,99168.63
2022-09-13T17:21:23.831Z,99166.13
2022-09-13T17:23:57.695Z,99293.31
2022-09-13T17:30:18.918Z,99169.78
2022-09-13T17:32:49.753Z,99265.81
2022-09-13T17:35:47.131Z,99265.63
2022-09-13T17:38:38.906Z,99273.44
2022-09-13T17:41:46.425Z,99153.28
2022-09-13T17:44:30.494Z,99217.78
2022-09-13T17:47:03.355Z,99185.50
2022-09-13T17:49:51.175Z,99222.22
2022-09-13T17:52:34.781Z,99265.00
2022-09-13T17:58:40.076Z,99135.25
2022-09-13T18:01:15.645Z,99246.25
2022-09-13T18:14:54.605Z,99199.50
2022-09-13T18:21:23.385Z,99227.06
2022-09-13T18:24:01.708Z,99232.38
2022-09-13T18:26:44.522Z,99070.28
2022-09-13T18:29:30.875Z,99109.38
2022-09-13T18:36:00.517Z,99177.97
2022-09-13T18:41:41.782Z,99154.25
2022-09-13T18:44:12.523Z,99196.34
2022-09-13T18:46:45.174Z,99149.38
2022-09-13T18:49:17.706Z,99200.63
2022-09-13T18:52:01.740Z,99195.59
2022-09-13T18:54:34.003Z,99193.13
2022-09-13T18:57:08.270Z,99141.06
2022-09-13T18:59:43.510Z,99139.50
2022-09-13T19:02:17.318Z,99179.66
2022-09-13T19:04:50.448Z,99164.06
2022-09-13T19:07:19.902Z,99115.44
2022-09-13T19:09:48.513Z,99140.38
2022-09-13T19:12:38.379Z,99040.59
2022-09-13T19:15:17.460Z,99054.34
2022-09-13T19:17:55.272Z,99003.16
2022-09-13T19:20:29.587Z,99143.88
2022-09-13T19:23:05.976Z,99113.31
2022-09-13T19:26:18.955Z,99033.03
2022-09-13T19:28:59.951Z,99051.63
2022-09-13T19:31:36.741Z,99125.78
2022-09-13T19:34:14.943Z,99087.50
2022-09-13T19:36:44.466Z,99050.78
2022-09-13T19:39:23.883Z,99124.91
2022-09-13T19:42:06.301Z,99055.72
2022-09-13T19:44:41.630Z,99056.44
2022-09-13T19:48:02.110Z,99045.44
2022-09-13T19:50:12.861Z,99076.13
2022-09-13T19:52:45.421Z,99079.34
2022-09-13T19:55:17.929Z,99095.47
2022-09-13T19:57:56.373Z,99034.81
2022-09-13T20:00:35.034Z,99003.47
2022-09-13T20:03:07.816Z,99056.03
2022-09-13T20:05:36.658Z,99027.66
2022-09-13T20:08:10.810Z,99065.22
2022-09-13T20:10:39.868Z,98967.06
2022-09-13T20:13:13.316Z,99070.09
2022-09-13T20:15:46.818Z,99031.66
2022-09-13T20:18:47.174Z,99059.81
2022-09-13T20:21:20.695Z,99052.06
2022-09-13T20:23:49.415Z,99007.72
2022-09-13T20:26:27.171Z,98998.22
2022-09-13T20:29:02.406Z,98995.59
2022-09-13T20:31:36.943Z,98947.09
2022-09-13T20:34:09.016Z,99031.59
2022-09-13T20:36:49.993Z,99038.16
2022-09-13T20:39:21.949Z,99010.88
2022-09-13T20:42:10.282Z,98958.84
2022-09-13T20:44:44.499Z,99030.41
2022-09-13T20:47:38.488Z,98889.16
2022-09-13T20:50:23.037Z,98982.72
2022-09-13T20:53:15.009Z,98941.91
2022-09-13T20:56:11.221Z,98962.31
2022-09-13T20:58:47.283Z,98943.72
2022-09-13T21:01:42.882Z,99010.78
2022-09-13T21:04:14.977Z,98932.38
2022-09-13T21:07:10.973Z,98969.03
2022-09-13T21:12:39.850Z,98943.81
2022-09-13T21:15:16.011Z,98955.22
2022-09-13T21:17:47.665Z,98992.66
2022-09-13T21:20:37.350Z,98973.91
2022-09-13T21:23:06.105Z,98939.78
2022-09-13T21:25:39.987Z,98950.03
2022-09-13T21:28:11.709Z,98986.59
2022-09-13T21:30:47.477Z,98977.94
2022-09-13T21:33:16.817Z,98948.31
2022-09-13T21:35:52.746Z,98880.09
2022-09-13T21:38:25.365Z,98970.28
2022-09-13T21:41:06.624Z,98884.16
2022-09-13T21:43:44.664Z,98944.56
2022-09-13T21:46:18.240Z,98957.38
2022-09-13T21:48:50.151Z,98964.28
2022-09-13T21:51:26.144Z,98966.88
2022-09-13T21:54:01.580Z,98875.69
2022-09-13T21:56:39.645Z,98911.34
2022-09-13T21:59:17.513Z,98902.75
2022-09-13T22:01:51.757Z,98885.63
2022-09-13T22:04:22.526Z,98957.97
2022-09-13T22:06:55.554Z,98872.63
2022-09-13T22:09:29.850Z,98875.13
2022-09-13T22:11:58.613Z,98902.53
2022-09-13T22:14:31.412Z,98888.16
2022-09-13T22:17:00.992Z,98876.22
2022-09-13T22:19:32.519Z,98899.91
2022-09-13T22:22:02.317Z,98928.28
2022-09-13T22:24:33.986Z,98943.94
2022-09-13T22:27:04.746Z,98941.41
2022-09-13T22:29:44.038Z,98886.84
2022-09-13T22:32:13.035Z,98939.69
2022-09-13T22:34:43.827Z,98931.03
2022-09-13T22:37:16.789Z,98924.34
2022-09-13T22:39:46.096Z,98894.69
2022-09-13T22:42:16.557Z,98861.34
2022-09-13T22:44:44.969Z,98912.53
2022-09-13T22:47:16.434Z,98789.78
2022-09-13T22:49:47.251Z,98883.41
2022-09-13T22:52:17.200Z,98898.81
2022-09-13T22:54:52.187Z,98845.94
2022-09-13T22:57:20.588Z,98900.34
2022-09-13T22:59:51.007Z,98873.69
2022-09-13T23:02:23.650Z,98774.06
2022-09-13T23:04:54.180Z,98830.09
2022-09-13T23:07:29.170Z,98802.94
2022-09-13T23:10:01.045Z,98768.88
2022-09-13T23:12:32.768Z,98848.94
2022-09-13T23:15:03.651Z,98877.13
2022-09-13T23:17:33.949Z,98874.47
2022-09-13T23:20:14.597Z,98867.50
2022-09-13T23:22:50.774Z,98858.78
2022-09-13T23:25:24.366Z,98782.91
2022-09-13T23:27:59.224Z,98828.72
2022-09-13T23:30:29.993Z,98788.78
2022-09-13T23:33:00.135Z,98861.03
2022-09-13T23:35:30.226Z,98767.16
2022-09-13T23:38:06.993Z,98853.97
2022-09-13T23:40:37.644Z,98851.44
2022-09-13T23:43:10.252Z,98841.13
2022-09-13T23:45:46.268Z,98841.31
2022-09-13T23:48:20.952Z,98839.47
2022-09-13T23:50:52.619Z,98832.56
2022-09-13T23:53:22.525Z,98810.41
2022-09-13T23:55:59.753Z,98755.84
2022-09-13T23:58:33.379Z,98829.91
